createdAt,value
2019-01-12T00:01:11.333Z,25.57
2019-01-12T00:03:40.513Z,43.37
2019-01-12T00:06:09.066Z,29.00
2019-01-12T00:08:37.668Z,36.00
2019-01-12T00:11:06.684Z,32.07
2019-01-12T00:13:35.237Z,29.07
2019-01-12T00:16:04.232Z,28.70
2019-01-12T00:18:32.836Z,48.17
2019-01-12T00:21:01.392Z,30.40
2019-01-12T00:23:29.953Z,18.77
2019-01-12T00:25:59.012Z,34.07
2019-01-12T00:28:27.575Z,34.03
2019-01-12T00:30:56.161Z,53.50
2019-01-12T00:33:27.816Z,37.10
2019-01-12T00:35:56.417Z,37.40
2019-01-12T00:38:25.400Z,32.73
2019-01-12T00:40:56.548Z,32.63
2019-01-12T00:43:26.690Z,32.63
2019-01-12T00:45:58.284Z,40.57
2019-01-12T00:48:27.057Z,55.30
2019-01-12T00:50:55.625Z,40.47
2019-01-12T00:53:25.025Z,43.67
2019-01-12T00:55:53.756Z,33.10
2019-01-12T00:58:22.394Z,36.77
2019-01-12T01:00:50.974Z,41.03
2019-01-12T01:03:19.561Z,38.30
2019-01-12T01:05:48.561Z,32.17
2019-01-12T01:08:17.113Z,26.43
2019-01-12T01:10:45.660Z,25.47
2019-01-12T01:13:14.216Z,34.47
2019-01-12T01:15:42.771Z,23.37
2019-01-12T01:18:11.327Z,31.50
2019-01-12T01:20:39.890Z,36.33
2019-01-12T01:23:08.966Z,43.00
2019-01-12T01:25:37.946Z,55.77
2019-01-12T01:28:06.612Z,32.93
2019-01-12T01:30:35.163Z,46.00
2019-01-12T01:33:03.853Z,41.63
2019-01-12T01:35:32.407Z,40.40
2019-01-12T01:38:00.963Z,27.23
2019-01-12T01:40:29.895Z,34.27
2019-01-12T01:42:58.872Z,36.30
2019-01-12T01:45:27.426Z,35.10
2019-01-12T01:47:56.395Z,32.07
2019-01-12T01:50:24.952Z,32.23
2019-01-12T01:52:55.131Z,34.30
2019-01-12T01:55:23.855Z,28.90
2019-01-12T01:57:52.399Z,27.80
2019-01-12T02:00:21.118Z,35.93
2019-01-12T02:02:49.758Z,32.07
2019-01-12T02:05:18.398Z,43.13
2019-01-12T02:07:47.070Z,28.30
2019-01-12T02:10:18.566Z,30.07
2019-01-12T02:12:47.207Z,39.37
2019-01-12T02:15:18.239Z,60.00
2019-01-12T02:17:47.275Z,31.07
2019-01-12T02:20:16.187Z,35.40
2019-01-12T02:22:44.726Z,37.50
2019-01-12T02:25:13.640Z,25.97
2019-01-12T02:27:42.340Z,27.67
2019-01-12T02:30:14.033Z,37.13
2019-01-12T02:32:42.570Z,28.47
2019-01-12T02:35:11.122Z,40.53
2019-01-12T02:37:39.683Z,33.00
2019-01-12T02:40:11.517Z,33.10
2019-01-12T02:42:42.788Z,28.63
2019-01-12T02:45:14.415Z,24.40
2019-01-12T02:47:45.928Z,38.03
2019-01-12T02:50:17.562Z,42.90
2019-01-12T02:52:48.835Z,29.60
2019-01-12T02:55:20.541Z,38.63
2019-01-12T02:57:52.375Z,27.40
2019-01-12T03:00:24.024Z,28.50
2019-01-12T03:02:53.723Z,25.77
2019-01-12T03:05:25.518Z,31.03
2019-01-12T03:07:56.909Z,23.53
2019-01-12T03:10:28.897Z,33.37
2019-01-12T03:12:57.461Z,38.37
2019-01-12T03:15:28.972Z,32.10
2019-01-12T03:18:00.738Z,32.53
2019-01-12T03:20:32.373Z,26.60
2019-01-12T03:23:01.021Z,27.83
2019-01-12T03:25:29.664Z,23.80
2019-01-12T03:27:58.877Z,40.60
2019-01-12T03:30:27.445Z,37.07
2019-01-12T03:32:59.117Z,30.93
2019-01-12T03:35:28.149Z,34.10
2019-01-12T03:37:56.770Z,37.43
2019-01-12T03:40:31.530Z,26.87
2019-01-12T03:43:02.797Z,35.87
2019-01-12T03:45:34.378Z,36.97
2019-01-12T03:48:06.057Z,36.23
2019-01-12T03:50:34.615Z,45.40
2019-01-12T03:53:05.957Z,29.63
2019-01-12T03:55:37.444Z,48.87
2019-01-12T03:58:08.715Z,29.30
2019-01-12T04:00:37.325Z,30.93
2019-01-12T04:03:05.936Z,23.20
2019-01-12T04:05:34.492Z,28.03
2019-01-12T04:08:03.151Z,32.13
2019-01-12T04:10:31.703Z,39.77
2019-01-12T04:13:00.618Z,41.03
2019-01-12T04:15:29.291Z,23.00
2019-01-12T04:17:57.859Z,34.13
2019-01-12T04:20:26.452Z,28.90
2019-01-12T04:22:56.769Z,37.43
2019-01-12T04:25:33.759Z,25.53
2019-01-12T04:27:58.934Z,29.43
2019-01-12T04:30:28.047Z,38.27
2019-01-12T04:32:56.918Z,23.20
2019-01-12T04:35:25.467Z,34.67
2019-01-12T04:37:54.011Z,36.17
2019-01-12T04:40:22.794Z,25.40
2019-01-12T04:42:51.351Z,45.30
2019-01-12T04:45:23.284Z,44.03
2019-01-12T04:47:51.830Z,24.67
2019-01-12T04:50:20.382Z,29.67
2019-01-12T04:52:51.616Z,27.80
2019-01-12T04:55:20.199Z,33.10
2019-01-12T04:57:48.936Z,38.23
2019-01-12T05:00:18.026Z,42.33
2019-01-12T05:02:47.050Z,39.60
2019-01-12T05:05:15.737Z,31.97
2019-01-12T05:07:44.363Z,26.43
2019-01-12T05:10:13.945Z,36.17
2019-01-12T05:12:42.562Z,27.93
2019-01-12T05:15:13.628Z,33.40
2019-01-12T05:17:42.259Z,26.37
2019-01-12T05:20:20.776Z,37.87
2019-01-12T05:22:52.024Z,41.93
2019-01-12T05:25:23.763Z,29.73
2019-01-12T05:27:58.358Z,17.53
2019-01-12T05:30:27.275Z,37.67
2019-01-12T05:32:59.266Z,29.50
2019-01-12T05:35:30.547Z,35.93
2019-01-12T05:38:01.977Z,27.30
2019-01-12T05:40:30.583Z,28.33
2019-01-12T05:43:02.161Z,23.97
2019-01-12T05:45:30.783Z,23.13
2019-01-12T05:48:02.249Z,40.90
2019-01-12T05:50:30.846Z,32.03
2019-01-12T05:53:02.309Z,30.27
2019-01-12T05:55:30.882Z,25.33
2019-01-12T05:57:59.490Z,33.67
2019-01-12T06:00:28.040Z,27.40
2019-01-12T06:02:56.601Z,20.53
2019-01-12T06:05:26.720Z,24.80
2019-01-12T06:07:58.142Z,28.53
2019-01-12T06:10:26.694Z,25.57
2019-01-12T06:12:58.248Z,32.30
2019-01-12T06:15:30.235Z,25.73
2019-01-12T06:17:58.799Z,30.30
2019-01-12T06:20:27.479Z,17.03
2019-01-12T06:22:56.103Z,21.90
2019-01-12T06:25:27.649Z,29.67
2019-01-12T06:27:56.191Z,19.20
2019-01-12T06:30:27.977Z,40.13
2019-01-12T06:32:56.699Z,34.33
2019-01-12T06:35:28.386Z,39.00
2019-01-12T06:37:57.479Z,17.10
2019-01-12T06:40:26.027Z,30.17
2019-01-12T06:42:57.452Z,22.17
2019-01-12T06:45:26.045Z,29.40
2019-01-12T06:47:57.411Z,17.20
2019-01-12T06:50:25.975Z,21.70
2019-01-12T06:52:57.503Z,33.37
2019-01-12T06:55:26.105Z,22.13
2019-01-12T06:57:57.672Z,19.73
2019-01-12T07:00:26.217Z,22.87
2019-01-12T07:02:54.850Z,28.70
2019-01-12T07:05:26.168Z,24.40
2019-01-12T07:07:57.649Z,24.90
2019-01-12T07:10:29.270Z,19.53
2019-01-12T07:12:58.208Z,14.30
2019-01-12T07:15:27.237Z,24.50
2019-01-12T07:17:55.843Z,26.83
2019-01-12T07:20:25.935Z,38.80
2019-01-12T07:22:57.675Z,21.57
2019-01-12T07:25:26.786Z,16.30
2019-01-12T07:27:58.160Z,14.10
2019-01-12T07:30:27.077Z,32.77
2019-01-12T07:32:55.737Z,24.90
2019-01-12T07:35:25.933Z,26.67
2019-01-12T07:37:57.790Z,27.37
2019-01-12T07:40:29.140Z,16.70
2019-01-12T07:43:00.592Z,34.83
2019-01-12T07:45:31.880Z,25.30
2019-01-12T07:48:03.199Z,43.53
2019-01-12T07:50:34.873Z,24.97
2019-01-12T07:53:06.441Z,34.43
2019-01-12T07:55:35.015Z,29.33
2019-01-12T07:58:06.590Z,25.03
2019-01-12T08:00:37.862Z,25.20
2019-01-12T08:03:09.414Z,20.97
2019-01-12T08:05:40.794Z,26.10
2019-01-12T08:08:12.330Z,32.67
2019-01-12T08:10:43.696Z,35.70
2019-01-12T08:13:12.248Z,30.27
2019-01-12T08:15:43.722Z,24.00
2019-01-12T08:18:12.274Z,33.43
2019-01-12T08:20:41.178Z,30.23
2019-01-12T08:23:09.854Z,27.00
2019-01-12T08:25:38.417Z,35.10
2019-01-12T08:28:07.166Z,38.27
2019-01-12T08:30:38.755Z,24.63
2019-01-12T08:33:07.369Z,24.67
2019-01-12T08:35:38.841Z,31.47
2019-01-12T08:38:10.435Z,26.33
2019-01-12T08:40:42.080Z,27.37
2019-01-12T08:43:13.717Z,27.93
2019-01-12T08:45:45.506Z,19.53
2019-01-12T08:48:14.139Z,20.70
2019-01-12T08:50:42.806Z,26.17
2019-01-12T08:53:11.394Z,27.07
2019-01-12T08:55:42.933Z,22.90
2019-01-12T08:58:14.684Z,15.93
2019-01-12T09:00:46.329Z,32.20
2019-01-12T09:03:17.947Z,22.73
2019-01-12T09:05:46.493Z,25.50
2019-01-12T09:08:18.076Z,29.97
2019-01-12T09:10:49.420Z,23.97
2019-01-12T09:13:21.182Z,24.30
2019-01-12T09:15:52.498Z,21.97
2019-01-12T09:18:21.106Z,30.83
2019-01-12T09:20:54.764Z,25.00
2019-01-12T09:23:25.025Z,25.60
2019-01-12T09:25:53.742Z,31.93
2019-01-12T09:28:22.412Z,26.23
2019-01-12T09:30:53.916Z,24.60
2019-01-12T09:33:22.472Z,25.57
2019-01-12T09:36:01.378Z,17.73
2019-01-12T09:38:30.103Z,22.87
2019-01-12T09:40:58.830Z,23.37
2019-01-12T09:43:27.416Z,15.07
2019-01-12T09:45:56.036Z,8.47
2019-01-12T09:48:27.731Z,21.33
2019-01-12T09:50:56.444Z,12.33
2019-01-12T09:53:26.709Z,12.40
2019-01-12T09:55:58.014Z,21.27
2019-01-12T09:58:26.611Z,12.80
2019-01-12T10:00:56.780Z,9.07
2019-01-12T10:03:28.212Z,17.40
2019-01-12T10:05:59.613Z,16.00
2019-01-12T10:08:28.276Z,12.00
2019-01-12T10:10:59.515Z,7.50
2019-01-12T10:13:28.068Z,7.03
2019-01-12T10:15:56.957Z,6.60
2019-01-12T10:18:25.531Z,8.13
2019-01-12T10:20:54.094Z,6.40
2019-01-12T10:23:25.075Z,9.07
2019-01-12T10:25:53.641Z,5.37
2019-01-12T10:28:22.873Z,7.07
2019-01-12T10:30:51.422Z,5.53
2019-01-12T10:33:19.971Z,9.27
2019-01-12T10:35:51.305Z,5.40
2019-01-12T10:38:20.339Z,5.37
2019-01-12T10:40:49.287Z,10.10
2019-01-12T10:43:21.010Z,8.27
2019-01-12T10:45:52.369Z,2.97
2019-01-12T10:48:26.695Z,6.20
2019-01-12T10:51:01.425Z,6.13
2019-01-12T10:53:30.314Z,5.40
2019-01-12T10:55:59.236Z,7.33
2019-01-12T10:58:27.794Z,3.10
2019-01-12T11:00:56.513Z,5.43
2019-01-12T11:03:26.690Z,4.87
2019-01-12T11:05:58.071Z,2.00
2019-01-12T11:08:26.873Z,2.03
2019-01-12T11:10:55.633Z,6.50
2019-01-12T11:13:27.330Z,3.43
2019-01-12T11:15:55.940Z,2.93
2019-01-12T11:18:27.522Z,2.03
2019-01-12T11:20:56.404Z,2.30
2019-01-12T11:23:26.536Z,3.47
2019-01-12T11:25:56.633Z,2.53
2019-01-12T11:28:30.765Z,2.70
2019-01-12T11:30:59.427Z,1.60
2019-01-12T11:33:30.950Z,3.30
2019-01-12T11:35:59.494Z,2.00
2019-01-12T11:38:28.028Z,3.03
2019-01-12T11:40:59.456Z,2.00
2019-01-12T11:43:28.424Z,5.13
2019-01-12T11:45:57.419Z,3.10
2019-01-12T11:48:25.973Z,1.80
2019-01-12T11:50:59.678Z,4.60
2019-01-12T11:53:31.572Z,4.87
2019-01-12T11:56:00.134Z,4.17
2019-01-12T11:58:28.798Z,2.60
2019-01-12T12:00:57.363Z,2.47
2019-01-12T12:03:28.942Z,2.97
2019-01-12T12:06:00.372Z,2.10
2019-01-12T12:08:29.004Z,3.50
2019-01-12T12:10:57.652Z,5.40
2019-01-12T12:13:29.352Z,3.40
2019-01-12T12:16:01.529Z,2.30
2019-01-12T12:18:30.232Z,2.70
2019-01-12T12:20:58.783Z,4.50
2019-01-12T12:23:30.312Z,1.80
2019-01-12T12:26:01.535Z,3.27
2019-01-12T12:28:30.109Z,2.97
2019-01-12T12:31:01.598Z,1.90
2019-01-12T12:33:30.213Z,1.40
2019-01-12T12:36:01.514Z,3.40
2019-01-12T12:38:30.059Z,2.50
2019-01-12T12:40:58.653Z,2.33
2019-01-12T12:43:30.117Z,1.90
2019-01-12T12:45:59.626Z,5.73
2019-01-12T12:48:31.044Z,3.27
2019-01-12T12:50:59.587Z,2.30
2019-01-12T12:53:30.936Z,2.80
2019-01-12T12:56:02.319Z,3.23
2019-01-12T12:58:33.638Z,2.67
2019-01-12T13:01:05.254Z,2.93
2019-01-12T13:03:36.567Z,9.33
2019-01-12T13:06:08.236Z,1.83
2019-01-12T13:08:36.835Z,3.13
2019-01-12T13:11:08.219Z,3.97
2019-01-12T13:13:39.851Z,6.00
2019-01-12T13:16:08.406Z,1.40
2019-01-12T13:18:39.860Z,2.73
2019-01-12T13:21:12.444Z,2.43
2019-01-12T13:23:46.805Z,3.40
2019-01-12T13:26:15.548Z,3.03
2019-01-12T13:28:47.111Z,3.30
2019-01-12T13:31:16.069Z,7.70
2019-01-12T13:33:47.769Z,3.47
2019-01-12T13:36:19.254Z,9.30
2019-01-12T13:38:47.860Z,3.20
2019-01-12T13:41:16.456Z,3.13
2019-01-12T13:43:48.034Z,3.30
2019-01-12T13:46:19.472Z,2.97
2019-01-12T13:48:48.059Z,3.70
2019-01-12T13:51:16.610Z,4.10
2019-01-12T13:53:45.201Z,4.70
2019-01-12T13:56:16.677Z,4.47
2019-01-12T13:58:48.403Z,3.27
2019-01-12T14:01:17.317Z,3.70
2019-01-12T14:03:45.912Z,3.07
2019-01-12T14:06:17.598Z,5.50
2019-01-12T14:08:46.153Z,5.73
2019-01-12T14:11:14.718Z,2.83
2019-01-12T14:13:43.311Z,5.50
2019-01-12T14:16:11.931Z,3.90
2019-01-12T14:18:40.509Z,2.83
2019-01-12T14:21:09.437Z,5.10
2019-01-12T14:23:38.147Z,5.70
2019-01-12T14:26:08.239Z,4.30
2019-01-12T14:28:36.792Z,7.53
2019-01-12T14:31:08.101Z,7.60
2019-01-12T14:33:36.716Z,7.10
2019-01-12T14:36:05.450Z,4.33
2019-01-12T14:38:34.051Z,5.17
2019-01-12T14:41:02.627Z,5.00
2019-01-12T14:43:34.047Z,4.33
2019-01-12T14:46:05.681Z,4.50
2019-01-12T14:48:37.319Z,6.40
2019-01-12T14:51:09.008Z,6.47
2019-01-12T14:53:40.242Z,4.80
2019-01-12T14:56:11.801Z,7.43
2019-01-12T14:58:40.358Z,6.30
2019-01-12T15:01:11.902Z,7.77
2019-01-12T15:03:40.459Z,4.83
2019-01-12T15:06:09.067Z,5.00
2019-01-12T15:08:38.003Z,4.50
2019-01-12T15:11:06.652Z,3.53
2019-01-12T15:13:35.311Z,2.93
2019-01-12T15:16:04.450Z,5.67
2019-01-12T15:18:36.045Z,4.83
2019-01-12T15:21:04.672Z,3.73
2019-01-12T15:23:33.519Z,5.13
2019-01-12T15:26:02.474Z,5.47
2019-01-12T15:28:38.935Z,6.43
2019-01-12T15:31:10.486Z,4.57
2019-01-12T15:33:39.440Z,5.30
2019-01-12T15:36:09.827Z,12.50
2019-01-12T15:38:39.028Z,9.10
2019-01-12T15:41:07.648Z,6.43
2019-01-12T15:43:36.198Z,10.07
2019-01-12T15:46:07.638Z,7.13
2019-01-12T15:48:36.265Z,10.40
2019-01-12T15:51:07.945Z,14.60
2019-01-12T15:53:36.590Z,10.23
2019-01-12T15:56:05.363Z,9.80
2019-01-12T15:58:34.016Z,6.73
2019-01-12T16:01:02.612Z,7.30
2019-01-12T16:03:33.999Z,10.83
2019-01-12T16:06:05.657Z,7.90
2019-01-12T16:08:34.247Z,6.80
2019-01-12T16:11:02.841Z,8.10
2019-01-12T16:13:31.594Z,6.90
2019-01-12T16:16:00.242Z,8.33
2019-01-12T16:18:28.794Z,6.70
2019-01-12T16:20:57.338Z,7.70
2019-01-12T16:23:26.337Z,9.57
2019-01-12T16:25:55.300Z,7.07
2019-01-12T16:28:26.453Z,7.43
2019-01-12T16:30:57.712Z,6.83
2019-01-12T16:33:26.259Z,6.60
2019-01-12T16:35:54.822Z,10.20
2019-01-12T16:38:25.051Z,8.10
2019-01-12T16:40:55.223Z,8.60
2019-01-12T16:43:26.544Z,9.77
2019-01-12T16:45:56.641Z,13.27
2019-01-12T16:48:27.876Z,10.47
2019-01-12T16:50:58.159Z,9.50
2019-01-12T16:53:26.992Z,8.30
2019-01-12T16:55:55.954Z,9.70
2019-01-12T16:58:30.365Z,9.13
2019-01-12T17:00:55.349Z,8.40
2019-01-12T17:03:26.897Z,10.53
2019-01-12T17:05:55.480Z,7.53
2019-01-12T17:08:24.435Z,9.27
2019-01-12T17:10:56.221Z,8.50
2019-01-12T17:13:24.763Z,6.73
2019-01-12T17:15:57.791Z,8.03
2019-01-12T17:18:26.391Z,7.40
2019-01-12T17:20:55.005Z,4.17
2019-01-12T17:23:23.567Z,7.63
2019-01-12T17:25:53.385Z,7.47
2019-01-12T17:28:23.973Z,6.13
2019-01-12T17:30:53.141Z,8.83
2019-01-12T17:33:21.666Z,4.30
2019-01-12T17:35:50.286Z,9.80
2019-01-12T17:38:18.849Z,7.30
2019-01-12T17:40:47.401Z,14.23
2019-01-12T17:43:16.028Z,5.83
2019-01-12T17:45:47.824Z,7.63
2019-01-12T17:48:19.038Z,8.37
2019-01-12T17:50:47.604Z,11.33
2019-01-12T17:53:19.131Z,7.60
2019-01-12T17:55:47.707Z,7.73
2019-01-12T17:58:16.325Z,6.33
2019-01-12T18:00:47.940Z,8.53
2019-01-12T18:03:16.790Z,7.43
2019-01-12T18:05:45.344Z,11.30
2019-01-12T18:08:14.082Z,10.03
2019-01-12T18:10:45.442Z,7.77
2019-01-12T18:13:13.994Z,7.73
2019-01-12T18:15:42.710Z,14.87
2019-01-12T18:18:14.256Z,14.00
2019-01-12T18:20:42.815Z,13.30
2019-01-12T18:23:11.524Z,16.33
2019-01-12T18:25:42.937Z,22.93
2019-01-12T18:28:14.235Z,12.83
2019-01-12T18:30:42.857Z,16.07
2019-01-12T18:33:11.792Z,13.13
2019-01-12T18:35:40.417Z,12.77
2019-01-12T18:38:08.977Z,6.40
2019-01-12T18:40:37.553Z,8.43
2019-01-12T18:43:06.164Z,12.07
2019-01-12T18:45:34.774Z,8.63
2019-01-12T18:48:03.670Z,8.10
2019-01-12T18:50:32.305Z,8.23
2019-01-12T18:53:00.914Z,6.93
2019-01-12T18:55:29.543Z,15.63
2019-01-12T18:57:58.716Z,9.93
2019-01-12T19:00:30.623Z,12.37
2019-01-12T19:02:59.445Z,10.70
2019-01-12T19:05:28.262Z,12.13
2019-01-12T19:07:57.161Z,13.17
2019-01-12T19:10:25.772Z,17.40
2019-01-12T19:12:55.928Z,13.77
2019-01-12T19:15:26.523Z,14.40
2019-01-12T19:17:56.676Z,14.43
2019-01-12T19:20:28.069Z,14.90
2019-01-12T19:22:56.706Z,13.70
2019-01-12T19:25:28.878Z,13.73
2019-01-12T19:27:57.499Z,11.83
2019-01-12T19:30:29.133Z,10.87
2019-01-12T19:32:57.685Z,16.90
2019-01-12T19:35:26.353Z,13.37
2019-01-12T19:37:55.065Z,14.30
2019-01-12T19:40:29.250Z,13.63
2019-01-12T19:43:00.947Z,12.03
2019-01-12T19:45:29.511Z,15.23
2019-01-12T19:47:58.047Z,15.60
2019-01-12T19:50:26.840Z,14.60
2019-01-12T19:52:55.590Z,13.63
2019-01-12T19:55:25.718Z,12.47
2019-01-12T19:57:55.963Z,12.23
2019-01-12T20:00:27.239Z,14.73
2019-01-12T20:02:55.837Z,12.97
2019-01-12T20:05:24.719Z,14.27
2019-01-12T20:07:56.821Z,14.30
2019-01-12T20:10:28.528Z,13.30
2019-01-12T20:12:57.213Z,16.10
2019-01-12T20:15:26.025Z,12.20
2019-01-12T20:17:57.278Z,19.87
2019-01-12T20:20:25.812Z,9.83
2019-01-12T20:22:56.057Z,15.50
2019-01-12T20:25:27.385Z,12.10
2019-01-12T20:27:58.981Z,11.67
2019-01-12T20:30:39.135Z,9.67
2019-01-12T20:33:16.737Z,11.93
2019-01-12T20:36:15.252Z,14.30
2019-01-12T20:39:10.748Z,12.40
2019-01-12T20:41:45.480Z,14.60
2019-01-12T20:44:52.036Z,12.70
2019-01-12T20:47:38.763Z,12.03
2019-01-12T20:50:13.215Z,14.73
2019-01-12T20:53:04.665Z,10.53
2019-01-12T20:55:51.316Z,10.20
2019-01-12T20:58:37.381Z,12.63
2019-01-12T21:01:18.136Z,13.23
2019-01-12T21:04:08.892Z,11.33
2019-01-12T21:06:56.911Z,11.80
2019-01-12T21:09:52.275Z,11.70
2019-01-12T21:12:32.953Z,14.63
2019-01-12T21:15:03.664Z,11.63
2019-01-12T21:17:32.422Z,13.57
2019-01-12T21:20:01.536Z,12.80
2019-01-12T21:22:30.145Z,15.60
2019-01-12T21:24:58.767Z,15.03
2019-01-12T21:27:27.721Z,11.97
2019-01-12T21:29:56.333Z,11.50
2019-01-12T21:32:24.992Z,8.00
2019-01-12T21:34:53.944Z,9.03
2019-01-12T21:37:23.076Z,21.63
2019-01-12T21:39:51.839Z,10.77
2019-01-12T21:42:20.456Z,8.20
2019-01-12T21:44:49.066Z,10.70
2019-01-12T21:47:17.798Z,9.23
2019-01-12T21:49:46.350Z,13.83
2019-01-12T21:52:14.961Z,8.23
2019-01-12T21:54:46.292Z,9.33
2019-01-12T21:57:14.853Z,14.37
2019-01-12T21:59:43.409Z,9.47
2019-01-12T22:02:12.102Z,10.00
2019-01-12T22:04:43.971Z,10.40
2019-01-12T22:07:12.606Z,10.20
2019-01-12T22:09:44.024Z,6.97
2019-01-12T22:12:12.732Z,7.33
2019-01-12T22:14:42.809Z,12.30
2019-01-12T22:17:14.406Z,11.17
2019-01-12T22:19:43.340Z,9.07
2019-01-12T22:22:11.909Z,9.40
2019-01-12T22:24:40.652Z,9.30
2019-01-12T22:27:12.204Z,10.17
2019-01-12T22:29:40.821Z,10.73
2019-01-12T22:32:09.443Z,7.17
2019-01-12T22:34:37.990Z,6.77
2019-01-12T22:37:06.580Z,12.70
2019-01-12T22:39:35.133Z,12.77
2019-01-12T22:42:06.640Z,9.23
2019-01-12T22:44:35.193Z,9.83
2019-01-12T22:47:03.751Z,11.33
2019-01-12T22:49:32.309Z,10.07
2019-01-12T22:52:00.863Z,6.03
2019-01-12T22:54:29.406Z,9.23
2019-01-12T22:56:57.955Z,5.20
2019-01-12T22:59:26.509Z,13.40
2019-01-12T23:01:57.661Z,12.50
2019-01-12T23:04:26.351Z,7.63
2019-01-12T23:06:57.828Z,5.83
2019-01-12T23:09:26.385Z,10.90
2019-01-12T23:11:56.499Z,11.53
2019-01-12T23:14:28.148Z,5.73
2019-01-12T23:16:56.696Z,5.53
2019-01-12T23:19:28.481Z,11.73
2019-01-12T23:21:57.094Z,8.23
2019-01-12T23:24:25.634Z,6.77
2019-01-12T23:26:54.328Z,5.10
2019-01-12T23:29:23.734Z,9.17
2019-01-12T23:31:52.350Z,4.37
2019-01-12T23:34:21.119Z,5.10
2019-01-12T23:36:49.654Z,6.10
2019-01-12T23:39:18.357Z,6.60
2019-01-12T23:41:46.891Z,8.50
2019-01-12T23:44:15.481Z,7.23
2019-01-12T23:46:44.076Z,3.60
2019-01-12T23:49:12.613Z,4.27
2019-01-12T23:51:41.279Z,10.70
2019-01-12T23:54:09.830Z,3.97
2019-01-12T23:56:38.420Z,7.03
2019-01-12T23:59:06.974Z,3.17
